createdAt,value
2024-03-05T00:01:39.053Z,100.00
2024-03-05T00:04:06.673Z,100.00
2024-03-05T00:06:34.365Z,100.00
2024-03-05T00:09:01.595Z,100.00
2024-03-05T00:11:29.061Z,100.00
2024-03-05T00:13:56.891Z,100.00
2024-03-05T00:16:26.454Z,100.00
2024-03-05T00:18:53.401Z,100.00
2024-03-05T00:21:20.915Z,100.00
2024-03-05T00:23:48.014Z,100.00
2024-03-05T00:26:16.093Z,100.00
2024-03-05T00:28:43.682Z,100.00
2024-03-05T00:31:11.475Z,100.00
2024-03-05T00:33:38.589Z,100.00
2024-03-05T00:36:06.376Z,100.00
2024-03-05T00:38:34.443Z,100.00
2024-03-05T00:41:02.261Z,100.00
2024-03-05T00:43:29.180Z,100.00
2024-03-05T00:45:56.577Z,100.00
2024-03-05T00:48:23.724Z,100.00
2024-03-05T00:50:51.991Z,100.00
2024-03-05T00:53:19.380Z,100.00
2024-03-05T00:55:46.686Z,100.00
2024-03-05T00:58:14.053Z,100.00
2024-03-05T01:00:41.406Z,100.00
2024-03-05T01:03:08.467Z,100.00
2024-03-05T01:05:35.881Z,100.00
2024-03-05T01:08:04.196Z,100.00
2024-03-05T01:10:31.444Z,100.00
2024-03-05T01:12:58.499Z,100.00
2024-03-05T01:15:25.719Z,100.00
2024-03-05T01:17:53.156Z,100.00
2024-03-05T01:20:21.561Z,100.00
2024-03-05T01:22:48.822Z,100.00
2024-03-05T01:25:18.239Z,100.00
2024-03-05T01:27:45.526Z,100.00
2024-03-05T01:30:13.100Z,100.00
2024-03-05T01:32:40.098Z,100.00
2024-03-05T01:35:11.416Z,100.00
2024-03-05T01:37:38.806Z,100.00
2024-03-05T01:40:06.533Z,100.00
2024-03-05T01:42:33.801Z,100.00
2024-03-05T01:45:01.182Z,100.00
2024-03-05T01:47:28.405Z,100.00
2024-03-05T01:49:56.577Z,100.00
2024-03-05T01:52:24.499Z,100.00
2024-03-05T01:54:56.781Z,100.00
2024-03-05T01:57:25.087Z,100.00
2024-03-05T01:59:52.290Z,100.00
2024-03-05T02:02:19.245Z,100.00
2024-03-05T02:04:47.127Z,100.00
2024-03-05T02:07:14.453Z,100.00
2024-03-05T02:09:42.474Z,100.00
2024-03-05T02:12:11.847Z,100.00
2024-03-05T02:14:39.077Z,100.00
2024-03-05T02:17:06.180Z,100.00
2024-03-05T02:19:34.810Z,100.00
2024-03-05T02:22:04.315Z,100.00
2024-03-05T02:24:34.420Z,100.00
2024-03-05T02:27:03.987Z,100.00
2024-03-05T02:29:32.540Z,100.00
2024-03-05T02:31:59.701Z,100.00
2024-03-05T02:34:27.394Z,100.00
2024-03-05T02:36:54.430Z,100.00
2024-03-05T02:39:24.355Z,100.00
2024-03-05T02:41:51.339Z,100.00
2024-03-05T02:44:18.628Z,100.00
2024-03-05T02:46:48.094Z,100.00
2024-03-05T02:49:17.971Z,100.00
2024-03-05T02:51:49.032Z,100.00
2024-03-05T02:54:16.520Z,100.00
2024-03-05T02:56:43.600Z,100.00
2024-03-05T02:59:10.845Z,100.00
2024-03-05T03:01:38.109Z,100.00
2024-03-05T03:04:06.768Z,100.00
2024-03-05T03:06:34.163Z,100.00
2024-03-05T03:09:04.440Z,100.00
2024-03-05T03:11:31.649Z,100.00
2024-03-05T03:13:58.574Z,100.00
2024-03-05T03:16:25.897Z,100.00
2024-03-05T03:18:55.307Z,100.00
2024-03-05T03:21:23.756Z,100.00
2024-03-05T03:23:50.642Z,100.00
2024-03-05T03:26:18.048Z,100.00
2024-03-05T03:28:45.052Z,100.00
2024-03-05T03:31:12.896Z,100.00
2024-03-05T03:33:40.745Z,100.00
2024-03-05T03:36:08.631Z,100.00
2024-03-05T03:38:35.727Z,100.00
2024-03-05T03:41:03.099Z,100.00
2024-03-05T03:43:30.103Z,100.00
2024-03-05T03:45:58.031Z,100.00
2024-03-05T03:48:25.594Z,100.00
2024-03-05T03:50:52.974Z,100.00
2024-03-05T03:53:19.885Z,100.00
2024-03-05T03:55:47.396Z,100.00
2024-03-05T03:58:14.338Z,100.00
2024-03-05T04:00:41.683Z,100.00
2024-03-05T04:03:08.553Z,100.00
2024-03-05T04:05:38.135Z,100.00
2024-03-05T04:08:05.520Z,100.00
2024-03-05T04:10:33.038Z,100.00
2024-03-05T04:12:59.954Z,100.00
2024-03-05T04:15:27.097Z,100.00
2024-03-05T04:17:54.167Z,100.00
2024-03-05T04:20:21.678Z,100.00
2024-03-05T04:22:48.846Z,100.00
2024-03-05T04:25:17.262Z,100.00
2024-03-05T04:27:47.845Z,100.00
2024-03-05T04:30:15.369Z,100.00
2024-03-05T04:32:58.906Z,100.00
2024-03-05T04:35:29.688Z,100.00
2024-03-05T04:37:57.707Z,100.00
2024-03-05T04:40:25.168Z,100.00
2024-03-05T04:42:52.164Z,100.00
2024-03-05T04:45:19.531Z,100.00
2024-03-05T04:47:46.593Z,100.00
2024-03-05T04:50:16.464Z,100.00
2024-03-05T04:52:44.081Z,100.00
2024-03-05T04:55:14.290Z,100.00
2024-03-05T04:57:43.330Z,100.00
2024-03-05T05:00:21.522Z,100.00
2024-03-05T05:02:50.453Z,100.00
2024-03-05T05:05:18.235Z,100.00
2024-03-05T05:07:48.033Z,100.00
2024-03-05T05:10:15.934Z,100.00
2024-03-05T05:12:44.912Z,100.00
2024-03-05T05:15:13.662Z,100.00
2024-03-05T05:17:41.017Z,100.00
2024-03-05T05:20:09.504Z,100.00
2024-03-05T05:22:40.011Z,100.00
2024-03-05T05:25:07.699Z,100.00
2024-03-05T05:27:36.530Z,100.00
2024-03-05T05:30:13.826Z,100.00
2024-03-05T05:32:41.846Z,100.00
2024-03-05T05:35:09.826Z,100.00
2024-03-05T05:37:38.276Z,100.00
2024-03-05T05:40:07.108Z,100.00
2024-03-05T05:42:34.287Z,100.00
2024-03-05T05:45:01.868Z,100.00
2024-03-05T05:47:29.288Z,100.00
2024-03-05T05:49:56.839Z,100.00
2024-03-05T05:52:23.961Z,100.00
2024-03-05T05:54:55.813Z,100.00
2024-03-05T05:57:22.761Z,100.00
2024-03-05T05:59:50.035Z,100.00
2024-03-05T06:02:20.771Z,100.00
2024-03-05T06:04:48.160Z,100.00
2024-03-05T06:07:15.338Z,100.00
2024-03-05T06:09:42.716Z,100.00
2024-03-05T06:12:09.669Z,100.00
2024-03-05T06:14:37.439Z,100.00
2024-03-05T06:17:04.684Z,100.00
2024-03-05T06:19:32.106Z,100.00
2024-03-05T06:21:59.117Z,100.00
2024-03-05T06:24:29.926Z,100.00
2024-03-05T06:26:57.451Z,100.00
2024-03-05T06:29:25.223Z,100.00
2024-03-05T06:31:52.406Z,100.00
2024-03-05T06:34:20.309Z,100.00
2024-03-05T06:36:50.465Z,100.00
2024-03-05T06:39:30.611Z,100.00
2024-03-05T06:42:01.037Z,100.00
2024-03-05T06:44:37.667Z,100.00
2024-03-05T06:47:06.092Z,100.00
2024-03-05T06:49:41.278Z,100.00
2024-03-05T06:52:35.166Z,100.00
2024-03-05T06:55:21.410Z,100.00
2024-03-05T06:57:48.417Z,100.00
2024-03-05T07:00:19.008Z,100.00
2024-03-05T07:02:46.040Z,100.00
2024-03-05T07:05:13.537Z,100.00
2024-03-05T07:07:41.124Z,100.00
2024-03-05T07:10:15.423Z,100.00
2024-03-05T07:12:46.307Z,100.00
2024-03-05T07:15:15.973Z,100.00
2024-03-05T07:17:45.771Z,100.00
2024-03-05T07:20:33.461Z,100.00
2024-03-05T07:23:00.756Z,100.00
2024-03-05T07:25:28.195Z,100.00
2024-03-05T07:27:56.060Z,100.00
2024-03-05T07:30:23.311Z,100.00
2024-03-05T07:32:50.431Z,100.00
2024-03-05T07:35:21.044Z,100.00
2024-03-05T07:37:50.716Z,100.00
2024-03-05T07:40:21.809Z,100.00
2024-03-05T07:42:54.836Z,100.00
2024-03-05T07:45:23.271Z,100.00
2024-03-05T07:47:51.376Z,100.00
2024-03-05T07:50:18.582Z,100.00
2024-03-05T07:52:48.970Z,100.00
2024-03-05T07:55:16.713Z,100.00
2024-03-05T07:57:44.417Z,100.00
2024-03-05T08:00:15.491Z,100.00
2024-03-05T08:02:46.312Z,100.00
2024-03-05T08:05:18.646Z,100.00
2024-03-05T08:07:46.703Z,100.00
2024-03-05T08:10:14.160Z,100.00
2024-03-05T08:12:45.469Z,100.00
2024-03-05T08:15:16.627Z,100.00
2024-03-05T08:17:47.638Z,100.00
2024-03-05T08:20:15.519Z,100.00
2024-03-05T08:22:43.886Z,100.00
2024-03-05T08:25:10.752Z,100.00
2024-03-05T08:27:39.673Z,100.00
2024-03-05T08:30:11.260Z,100.00
2024-03-05T08:32:39.089Z,100.00
2024-03-05T08:35:06.973Z,100.00
2024-03-05T08:37:37.221Z,100.00
2024-03-05T08:40:10.788Z,100.00
2024-03-05T08:42:38.247Z,100.00
2024-03-05T08:45:05.690Z,100.00
2024-03-05T08:47:34.946Z,100.00
2024-03-05T08:50:02.050Z,100.00
2024-03-05T08:52:29.574Z,100.00
2024-03-05T08:54:57.219Z,100.00
2024-03-05T08:57:26.973Z,100.00
2024-03-05T08:59:54.349Z,100.00
2024-03-05T09:02:21.937Z,100.00
2024-03-05T09:04:50.136Z,100.00
2024-03-05T09:07:19.119Z,100.00
2024-03-05T09:09:46.336Z,100.00
2024-03-05T09:12:15.187Z,100.00
2024-03-05T09:14:45.543Z,100.00
2024-03-05T09:17:12.981Z,100.00
2024-03-05T09:19:40.081Z,100.00
2024-03-05T09:22:07.510Z,100.00
2024-03-05T09:24:34.556Z,100.00
2024-03-05T09:27:02.072Z,100.00
2024-03-05T09:29:31.611Z,100.00
2024-03-05T09:32:04.034Z,100.00
2024-03-05T09:34:33.936Z,100.00
2024-03-05T09:37:01.389Z,100.00
2024-03-05T09:39:30.705Z,100.00
2024-03-05T09:42:00.328Z,100.00
2024-03-05T09:44:27.423Z,100.00
2024-03-05T09:46:55.302Z,100.00
2024-03-05T09:49:25.815Z,100.00
2024-03-05T09:51:56.711Z,100.00
2024-03-05T09:54:24.119Z,100.00
2024-03-05T09:56:54.345Z,98.48
2024-03-05T09:59:21.883Z,99.60
2024-03-05T10:01:50.965Z,100.00
2024-03-05T10:04:18.406Z,100.00
2024-03-05T10:06:51.838Z,100.00
2024-03-05T10:09:20.472Z,100.00
2024-03-05T10:11:50.131Z,100.00
2024-03-05T10:14:16.985Z,100.00
2024-03-05T10:16:47.188Z,100.00
2024-03-05T10:19:18.213Z,100.00
2024-03-05T10:21:47.731Z,100.00
2024-03-05T10:24:15.255Z,100.00
2024-03-05T10:26:42.491Z,100.00
2024-03-05T10:29:10.691Z,100.00
2024-03-05T10:31:44.140Z,100.00
2024-03-05T10:34:11.530Z,99.46
2024-03-05T10:36:46.381Z,97.00
2024-03-05T10:39:14.115Z,95.97
2024-03-05T10:41:47.443Z,100.00
2024-03-05T10:44:21.089Z,100.00
2024-03-05T10:46:51.348Z,100.00
2024-03-05T10:49:21.036Z,96.87
2024-03-05T10:51:48.844Z,98.31
2024-03-05T10:54:15.760Z,95.72
2024-03-05T10:56:44.890Z,94.69
2024-03-05T10:59:31.391Z,92.15
2024-03-05T11:02:00.040Z,87.13
2024-03-05T11:04:28.495Z,87.80
2024-03-05T11:06:56.864Z,84.46
2024-03-05T11:09:24.852Z,88.28
2024-03-05T11:12:01.946Z,84.26
2024-03-05T11:14:30.548Z,83.78
2024-03-05T11:17:01.296Z,83.21
2024-03-05T11:19:28.501Z,82.55
2024-03-05T11:21:56.287Z,82.54
2024-03-05T11:24:26.868Z,81.39
2024-03-05T11:27:13.049Z,78.85
2024-03-05T11:29:42.800Z,80.55
2024-03-05T11:32:11.416Z,82.41
2024-03-05T11:34:46.462Z,81.04
2024-03-05T11:37:16.530Z,79.90
2024-03-05T11:39:44.052Z,82.01
2024-03-05T11:42:20.904Z,81.59
2024-03-05T11:44:47.867Z,79.75
2024-03-05T11:47:22.418Z,78.76
2024-03-05T11:49:49.765Z,78.05
2024-03-05T11:52:19.851Z,77.18
2024-03-05T11:54:57.097Z,73.46
2024-03-05T11:57:24.670Z,72.81
2024-03-05T11:59:51.617Z,71.97
2024-03-05T12:02:19.007Z,74.44
2024-03-05T12:04:50.430Z,78.83
2024-03-05T12:07:18.660Z,80.89
2024-03-05T12:09:45.733Z,79.87
2024-03-05T12:12:17.813Z,82.00
2024-03-05T12:14:57.267Z,80.87
2024-03-05T12:17:27.677Z,80.25
2024-03-05T12:19:59.186Z,85.07
2024-03-05T12:22:29.230Z,90.60
2024-03-05T12:25:01.141Z,86.75
2024-03-05T12:27:28.800Z,89.16
2024-03-05T12:29:57.106Z,88.01
2024-03-05T12:32:26.955Z,92.58
2024-03-05T12:34:55.952Z,93.69
2024-03-05T12:37:25.364Z,95.38
2024-03-05T12:39:59.317Z,96.70
2024-03-05T12:42:26.650Z,98.93
2024-03-05T12:45:04.045Z,100.00
2024-03-05T12:47:32.628Z,100.00
2024-03-05T12:50:03.270Z,100.00
2024-03-05T12:52:33.349Z,100.00
2024-03-05T12:55:01.653Z,97.60
2024-03-05T12:57:30.668Z,96.08
2024-03-05T13:00:01.819Z,91.27
2024-03-05T13:02:29.904Z,93.90
2024-03-05T13:04:59.314Z,91.08
2024-03-05T13:07:27.784Z,90.96
2024-03-05T13:09:55.396Z,90.72
2024-03-05T13:12:24.499Z,90.11
2024-03-05T13:14:51.779Z,88.02
2024-03-05T13:17:19.158Z,90.32
2024-03-05T13:19:46.565Z,91.25
2024-03-05T13:22:14.532Z,92.88
2024-03-05T13:24:42.027Z,92.23
2024-03-05T13:27:09.424Z,88.63
2024-03-05T13:29:37.195Z,85.82
2024-03-05T13:32:07.760Z,85.01
2024-03-05T13:34:35.054Z,82.66
2024-03-05T13:37:02.491Z,81.31
2024-03-05T13:39:29.390Z,80.35
2024-03-05T13:41:56.942Z,79.70
2024-03-05T13:44:24.746Z,81.20
2024-03-05T13:46:53.377Z,81.66
2024-03-05T13:49:21.650Z,84.23
2024-03-05T13:51:52.630Z,83.18
2024-03-05T13:54:20.582Z,82.81
2024-03-05T13:56:48.038Z,83.36
2024-03-05T13:59:15.196Z,82.04
2024-03-05T14:01:42.888Z,81.33
2024-03-05T14:04:12.929Z,83.25
2024-03-05T14:06:40.544Z,84.12
2024-03-05T14:09:10.521Z,88.93
2024-03-05T14:11:42.145Z,84.75
2024-03-05T14:14:18.017Z,85.89
2024-03-05T14:16:48.535Z,84.41
2024-03-05T14:19:15.782Z,82.90
2024-03-05T14:21:43.068Z,84.28
2024-03-05T14:24:14.103Z,84.23
2024-03-05T14:26:43.215Z,81.63
2024-03-05T14:29:10.812Z,84.35
2024-03-05T14:31:38.310Z,82.23
2024-03-05T14:34:05.714Z,82.74
2024-03-05T14:36:33.084Z,83.07
2024-03-05T14:39:03.670Z,83.60
2024-03-05T14:41:30.972Z,92.04
2024-03-05T14:43:57.996Z,89.73
2024-03-05T14:46:26.171Z,92.28
2024-03-05T14:48:53.094Z,87.19
2024-03-05T14:51:20.505Z,86.71
2024-03-05T14:53:48.408Z,93.13
2024-03-05T14:56:18.079Z,91.96
2024-03-05T14:58:45.496Z,92.69
2024-03-05T15:01:12.712Z,93.58
2024-03-05T15:03:42.075Z,93.31
2024-03-05T15:06:10.402Z,93.23
2024-03-05T15:08:40.394Z,95.04
2024-03-05T15:11:11.214Z,94.83
2024-03-05T15:13:38.511Z,99.46
2024-03-05T15:16:09.065Z,100.00
2024-03-05T15:18:36.731Z,100.00
2024-03-05T15:21:15.580Z,100.00
2024-03-05T15:23:42.853Z,100.00
2024-03-05T15:26:13.192Z,100.00
2024-03-05T15:28:42.251Z,100.00
2024-03-05T15:31:12.675Z,100.00
2024-03-05T15:33:40.001Z,100.00
2024-03-05T15:36:07.644Z,100.00
2024-03-05T15:38:35.483Z,100.00
2024-03-05T15:41:04.196Z,100.00
2024-03-05T15:43:32.706Z,100.00
2024-03-05T15:46:00.055Z,100.00
2024-03-05T15:48:27.110Z,100.00
2024-03-05T15:50:54.531Z,100.00
2024-03-05T15:53:24.309Z,100.00
2024-03-05T15:56:05.672Z,100.00
2024-03-05T15:58:45.095Z,100.00
2024-03-05T16:01:13.187Z,100.00
2024-03-05T16:03:57.168Z,100.00
2024-03-05T16:06:30.690Z,100.00
2024-03-05T16:08:58.929Z,100.00
2024-03-05T16:11:26.825Z,100.00
2024-03-05T16:13:55.137Z,100.00
2024-03-05T16:16:24.882Z,100.00
2024-03-05T16:18:52.155Z,100.00
2024-03-05T16:21:19.653Z,100.00
2024-03-05T16:23:47.182Z,100.00
2024-03-05T16:26:14.584Z,100.00
2024-03-05T16:28:41.553Z,100.00
2024-03-05T16:31:13.142Z,100.00
2024-03-05T16:33:42.473Z,100.00
2024-03-05T16:36:09.704Z,100.00
2024-03-05T16:38:37.675Z,100.00
2024-03-05T16:41:07.441Z,100.00
2024-03-05T16:43:34.526Z,100.00
2024-03-05T16:46:02.150Z,100.00
2024-03-05T16:48:29.102Z,100.00
2024-03-05T16:50:58.107Z,100.00
2024-03-05T16:53:25.516Z,100.00
2024-03-05T16:55:52.971Z,100.00
2024-03-05T16:58:20.211Z,100.00
2024-03-05T17:00:56.364Z,100.00
2024-03-05T17:03:25.785Z,100.00
2024-03-05T17:05:54.811Z,100.00
2024-03-05T17:08:22.184Z,100.00
2024-03-05T17:10:51.429Z,100.00
2024-03-05T17:13:27.684Z,100.00
2024-03-05T17:16:01.555Z,100.00
2024-03-05T17:18:32.019Z,100.00
2024-03-05T17:20:59.838Z,100.00
2024-03-05T17:23:28.011Z,100.00
2024-03-05T17:25:57.648Z,100.00
2024-03-05T17:28:27.912Z,100.00
2024-03-05T17:30:56.053Z,100.00
2024-03-05T17:33:26.282Z,100.00
2024-03-05T17:35:56.767Z,100.00
2024-03-05T17:38:25.025Z,100.00
2024-03-05T17:40:53.139Z,100.00
2024-03-05T17:43:20.951Z,100.00
2024-03-05T17:45:49.309Z,100.00
2024-03-05T17:48:16.418Z,100.00
2024-03-05T17:50:46.245Z,100.00
2024-03-05T17:53:13.989Z,100.00
2024-03-05T17:55:41.442Z,100.00
2024-03-05T17:58:09.674Z,100.00
2024-03-05T18:00:46.459Z,100.00
2024-03-05T18:03:15.862Z,100.00
2024-03-05T18:05:46.982Z,100.00
2024-03-05T18:08:14.723Z,100.00
2024-03-05T18:10:42.891Z,100.00
2024-03-05T18:13:10.944Z,100.00
2024-03-05T18:15:38.308Z,100.00
2024-03-05T18:18:07.896Z,100.00
2024-03-05T18:20:37.072Z,100.00
2024-03-05T18:23:06.660Z,100.00
2024-03-05T18:25:36.303Z,100.00
2024-03-05T18:28:05.301Z,100.00
2024-03-05T18:30:36.524Z,100.00
2024-03-05T18:33:08.429Z,100.00
2024-03-05T18:35:41.773Z,100.00
2024-03-05T18:38:21.308Z,100.00
2024-03-05T18:40:58.424Z,100.00
2024-03-05T18:43:26.388Z,100.00
2024-03-05T18:45:54.017Z,100.00
2024-03-05T18:48:21.949Z,100.00
2024-03-05T18:50:49.754Z,100.00
2024-03-05T18:53:17.656Z,100.00
2024-03-05T18:55:45.989Z,100.00
2024-03-05T18:58:13.796Z,100.00
2024-03-05T19:00:43.027Z,100.00
2024-03-05T19:03:10.700Z,100.00
2024-03-05T19:05:38.756Z,100.00
2024-03-05T19:08:07.971Z,100.00
2024-03-05T19:10:35.962Z,100.00
2024-03-05T19:13:03.797Z,100.00
2024-03-05T19:15:31.186Z,100.00
2024-03-05T19:17:58.813Z,100.00
2024-03-05T19:20:27.400Z,100.00
2024-03-05T19:22:57.701Z,100.00
2024-03-05T19:25:29.394Z,100.00
2024-03-05T19:27:56.620Z,100.00
2024-03-05T19:30:24.015Z,100.00
2024-03-05T19:32:51.001Z,100.00
2024-03-05T19:35:19.237Z,100.00
2024-03-05T19:37:47.895Z,100.00
2024-03-05T19:40:22.804Z,100.00
2024-03-05T19:43:00.081Z,100.00
2024-03-05T19:45:27.856Z,100.00
2024-03-05T19:47:56.002Z,100.00
2024-03-05T19:50:28.854Z,100.00
2024-03-05T19:52:58.696Z,100.00
2024-03-05T19:55:26.489Z,100.00
2024-03-05T19:57:54.105Z,100.00
2024-03-05T20:00:25.084Z,100.00
2024-03-05T20:02:54.782Z,100.00
2024-03-05T20:05:24.366Z,100.00
2024-03-05T20:07:53.858Z,100.00
2024-03-05T20:10:22.857Z,100.00
2024-03-05T20:12:50.590Z,100.00
2024-03-05T20:15:18.719Z,100.00
2024-03-05T20:17:48.157Z,100.00
2024-03-05T20:20:20.604Z,100.00
2024-03-05T20:22:49.026Z,100.00
2024-03-05T20:25:24.263Z,100.00
2024-03-05T20:27:53.559Z,100.00
2024-03-05T20:30:24.651Z,100.00
2024-03-05T20:32:52.960Z,100.00
2024-03-05T20:35:20.905Z,100.00
2024-03-05T20:37:50.751Z,100.00
2024-03-05T20:40:20.403Z,100.00
2024-03-05T20:42:49.039Z,100.00
2024-03-05T20:45:19.306Z,100.00
2024-03-05T20:47:50.324Z,100.00
2024-03-05T20:50:19.595Z,100.00
2024-03-05T20:52:47.010Z,100.00
2024-03-05T20:55:15.042Z,100.00
2024-03-05T20:57:44.826Z,100.00
2024-03-05T21:00:16.856Z,100.00
2024-03-05T21:02:44.719Z,100.00
2024-03-05T21:05:14.903Z,100.00
2024-03-05T21:07:44.848Z,100.00
2024-03-05T21:10:15.427Z,100.00
2024-03-05T21:12:42.912Z,100.00
2024-03-05T21:15:11.892Z,100.00
2024-03-05T21:17:40.037Z,100.00
2024-03-05T21:20:08.848Z,100.00
2024-03-05T21:22:36.202Z,100.00
2024-03-05T21:25:07.557Z,100.00
2024-03-05T21:27:38.735Z,100.00
2024-03-05T21:30:07.227Z,100.00
2024-03-05T21:32:34.706Z,100.00
2024-03-05T21:35:02.826Z,100.00
2024-03-05T21:37:30.031Z,100.00
2024-03-05T21:39:59.744Z,100.00
2024-03-05T21:42:27.043Z,100.00
2024-03-05T21:44:54.370Z,100.00
2024-03-05T21:47:24.910Z,100.00
2024-03-05T21:49:52.210Z,100.00
2024-03-05T21:52:19.484Z,100.00
2024-03-05T21:54:46.895Z,100.00
2024-03-05T21:57:13.914Z,100.00
2024-03-05T21:59:41.266Z,100.00
2024-03-05T22:02:08.233Z,100.00
2024-03-05T22:04:35.904Z,100.00
2024-03-05T22:07:03.816Z,100.00
2024-03-05T22:09:31.140Z,100.00
2024-03-05T22:11:59.637Z,100.00
2024-03-05T22:14:31.112Z,100.00
2024-03-05T22:16:58.091Z,100.00
2024-03-05T22:19:26.161Z,100.00
2024-03-05T22:21:53.319Z,100.00
2024-03-05T22:24:21.228Z,100.00
2024-03-05T22:26:48.372Z,100.00
2024-03-05T22:29:15.689Z,100.00
2024-03-05T22:31:45.356Z,100.00
2024-03-05T22:34:14.926Z,100.00
2024-03-05T22:36:41.973Z,100.00
2024-03-05T22:39:09.221Z,100.00
2024-03-05T22:41:36.537Z,100.00
2024-03-05T22:44:04.096Z,100.00
2024-03-05T22:46:31.109Z,100.00
2024-03-05T22:48:58.321Z,100.00
2024-03-05T22:51:25.828Z,100.00
2024-03-05T22:53:55.612Z,100.00
2024-03-05T22:56:22.518Z,100.00
2024-03-05T22:58:49.789Z,100.00
2024-03-05T23:01:17.367Z,100.00
2024-03-05T23:03:45.115Z,100.00
2024-03-05T23:06:18.610Z,100.00
2024-03-05T23:08:48.925Z,100.00
2024-03-05T23:11:16.421Z,100.00
2024-03-05T23:13:43.926Z,100.00
2024-03-05T23:16:10.859Z,100.00
2024-03-05T23:18:42.166Z,100.00
2024-03-05T23:21:11.918Z,100.00
2024-03-05T23:23:43.710Z,100.00
2024-03-05T23:26:10.921Z,100.00
2024-03-05T23:28:39.238Z,100.00
2024-03-05T23:31:11.715Z,100.00
2024-03-05T23:33:39.042Z,100.00
2024-03-05T23:36:06.486Z,100.00
2024-03-05T23:38:34.110Z,100.00
2024-03-05T23:41:01.333Z,100.00
2024-03-05T23:43:31.236Z,100.00
2024-03-05T23:45:58.361Z,100.00
2024-03-05T23:48:25.910Z,100.00
2024-03-05T23:50:52.870Z,100.00
2024-03-05T23:53:20.336Z,100.00
2024-03-05T23:55:47.356Z,100.00
2024-03-05T23:58:14.774Z,100.00
